Time;durP1;ratioP1;P1;durP2;ratioP2;P2;SDS_P1;SDS_P2;PMS_P1;PMS_P2;Temp;Humidity;BMP_temperature;BMP_pressure;BME280_temperature;BME280_humidity;BME280_pressure;Samples;Min_cycle;Max_cycle;Signal;HPM_P1;HPM_P2
2022/01/03 00:00:09;;;;;;;2.47;2.00;;;;;;;9.27;100.00;97890.53;4982341;28;20206;-68
2022/01/03 00:02:38;;;;;;;5.07;2.40;;;;;;;9.15;100.00;97884.69;4979814;28;20236;-68
2022/01/03 00:05:07;;;;;;;3.13;2.63;;;;;;;9.12;100.00;97887.66;4987453;28;20210;-67
2022/01/03 00:07:38;;;;;;;4.47;3.00;;;;;;;8.91;100.00;97880.97;4980985;28;20208;-66
2022/01/03 00:10:07;;;;;;;4.00;2.40;;;;;;;8.85;100.00;97883.38;4981047;28;20213;-67
2022/01/03 00:12:35;;;;;;;2.60;2.10;;;;;;;8.78;100.00;97891.09;4981432;28;20784;-67
2022/01/03 00:15:05;;;;;;;2.50;2.30;;;;;;;8.65;100.00;97889.69;4984284;28;20382;-67
2022/01/03 00:17:33;;;;;;;2.90;2.70;;;;;;;8.67;100.00;97879.81;4982115;28;20236;-67
2022/01/03 00:20:01;;;;;;;2.67;2.23;;;;;;;8.47;100.00;97865.94;4982145;28;20205;-67
2022/01/03 00:22:34;;;;;;;2.97;2.77;;;;;;;8.37;100.00;97858.09;4985805;28;20209;-68
2022/01/03 00:25:06;;;;;;;3.13;2.80;;;;;;;8.25;100.00;97862.78;4984291;28;20272;-68
2022/01/03 00:27:38;;;;;;;2.57;2.37;;;;;;;8.23;100.00;97867.38;4983717;28;20692;-69
2022/01/03 00:30:08;;;;;;;2.50;2.27;;;;;;;8.19;100.00;97878.41;4984169;28;20205;-67
2022/01/03 00:32:38;;;;;;;2.67;2.47;;;;;;;8.10;100.00;97874.88;4984120;28;20520;-67
2022/01/03 00:35:07;;;;;;;3.53;2.77;;;;;;;8.01;100.00;97868.66;4985356;28;20212;-67
2022/01/03 00:37:36;;;;;;;2.90;2.63;;;;;;;7.96;100.00;97858.59;4982129;28;20229;-66
2022/01/03 00:40:06;;;;;;;2.53;2.43;;;;;;;7.94;100.00;97851.78;4982574;28;20228;-67
2022/01/03 00:42:34;;;;;;;2.83;2.63;;;;;;;7.95;100.00;97854.28;4984438;28;20213;-67
2022/01/03 00:45:03;;;;;;;3.43;3.17;;;;;;;7.90;100.00;97835.41;4982848;28;20210;-67
2022/01/03 00:47:33;;;;;;;3.30;3.00;;;;;;;7.91;100.00;97825.69;4981372;28;20252;-67
2022/01/03 00:50:03;;;;;;;3.50;2.77;;;;;;;7.99;100.00;97817.84;4982831;28;20208;-67
2022/01/03 00:52:31;;;;;;;3.73;2.73;;;;;;;7.92;100.00;97817.63;4984132;28;20524;-67
2022/01/03 00:54:59;;;;;;;3.07;2.87;;;;;;;7.96;100.00;97834.00;4983433;28;20216;-67
2022/01/03 00:57:38;;;;;;;2.17;2.07;;;;;;;8.04;100.00;97835.88;4985190;28;20232;-67
2022/01/03 01:00:09;;;;;;;3.23;2.97;;;;;;;8.00;100.00;97847.72;4981920;28;20216;-67
2022/01/03 01:02:38;;;;;;;6.33;2.97;;;;;;;8.02;100.00;97841.28;4979461;28;20221;-67
2022/01/03 01:05:07;;;;;;;4.83;3.30;;;;;;;8.10;100.00;97846.66;4988242;28;20313;-67
2022/01/03 01:07:35;;;;;;;4.13;2.40;;;;;;;8.22;100.00;97841.97;4983773;28;20217;-68
2022/01/03 01:10:06;;;;;;;3.50;2.40;;;;;;;8.20;100.00;97854.47;4980570;28;20205;-67
2022/01/03 01:12:37;;;;;;;3.10;2.27;;;;;;;8.35;100.00;97846.03;4983324;28;20504;-67
2022/01/03 01:15:07;;;;;;;2.43;2.30;;;;;;;8.38;100.00;97838.63;4981914;28;20566;-67
2022/01/03 01:17:35;;;;;;;2.10;1.90;;;;;;;8.31;100.00;97824.38;4982266;28;20233;-67
2022/01/03 01:20:05;;;;;;;2.33;2.17;;;;;;;8.36;100.00;97830.03;4984643;28;20206;-66
2022/01/03 01:22:33;;;;;;;5.77;2.97;;;;;;;8.44;100.00;97829.25;4983984;28;20213;-67
2022/01/03 01:25:25;;;;;;;1.90;1.80;;;;;;;8.52;100.00;97823.22;4983894;28;20209;-65
2022/01/03 01:27:56;;;;;;;1.83;1.73;;;;;;;8.54;100.00;97829.22;4981673;28;20206;-69
2022/01/03 01:30:26;;;;;;;2.13;2.03;;;;;;;8.59;100.00;97829.56;4983996;28;20628;-67
2022/01/03 01:33:01;;;;;;;1.50;1.40;;;;;;;8.65;100.00;97830.72;4984059;28;20202;-67
2022/01/03 01:35:31;;;;;;;3.60;1.97;;;;;;;8.79;100.00;97830.19;4982859;28;20213;-68
2022/01/03 01:38:00;;;;;;;1.60;1.50;;;;;;;8.81;100.00;97830.00;4983248;28;20225;-68
2022/01/03 01:40:29;;;;;;;4.07;1.60;;;;;;;9.05;100.00;97845.16;4983711;28;20225;-67
2022/01/03 01:43:00;;;;;;;1.90;1.37;;;;;;;9.43;100.00;97826.31;4983519;28;20221;-70
2022/01/03 01:45:28;;;;;;;1.77;1.50;;;;;;;9.67;100.00;97822.91;4986335;28;20205;-67
2022/01/03 01:48:00;;;;;;;4.43;1.50;;;;;;;9.90;100.00;97821.44;4983216;28;20690;-67
2022/01/03 01:50:29;;;;;;;2.53;1.10;;;;;;;10.09;100.00;97833.53;4983232;28;20769;-67
2022/01/03 01:52:58;;;;;;;3.03;1.37;;;;;;;10.04;100.00;97855.22;4984014;28;20210;-67
2022/01/03 01:55:25;;;;;;;1.23;0.93;;;;;;;10.13;100.00;97830.41;4982991;28;20672;-67
2022/01/03 01:58:04;;;;;;;1.73;1.43;;;;;;;10.34;100.00;97834.34;4981569;28;20597;-69
2022/01/03 02:00:34;;;;;;;2.47;1.23;;;;;;;10.59;100.00;97846.78;4978367;28;20831;-67
2022/01/03 02:03:15;;;;;;;3.37;1.33;;;;;;;10.76;100.00;97827.22;4984001;28;20228;-69
2022/01/03 02:05:45;;;;;;;1.40;1.30;;;;;;;10.73;100.00;97816.13;4981898;28;20208;-69
2022/01/03 02:08:15;;;;;;;3.10;1.73;;;;;;;10.71;100.00;97827.72;4985593;28;20240;-67
2022/01/03 02:10:44;;;;;;;3.13;1.30;;;;;;;10.84;100.00;97872.25;4986121;28;20229;-69
2022/01/03 02:13:19;;;;;;;4.17;2.37;;;;;;;10.87;100.00;97826.03;4983997;28;20348;-67
2022/01/03 02:15:56;;;;;;;1.53;1.07;;;;;;;10.92;100.00;97833.47;4983385;28;20208;-69
2022/01/03 02:18:25;;;;;;;2.73;1.80;;;;;;;10.85;100.00;97847.41;4984013;28;20229;-69
2022/01/03 02:20:55;;;;;;;4.17;2.00;;;;;;;10.98;100.00;97877.84;4985766;28;20248;-69
2022/01/03 02:23:23;;;;;;;4.33;1.27;;;;;;;10.89;100.00;97905.38;4980896;28;20217;-67
2022/01/03 02:25:50;;;;;;;2.10;1.10;;;;;;;10.07;100.00;97950.22;4985756;28;20209;-68
2022/01/03 02:28:22;;;;;;;0.70;0.70;;;;;;;8.04;100.00;97973.13;4979633;28;20205;-67
2022/01/03 02:30:52;;;;;;;0.70;0.70;;;;;;;6.18;100.00;97990.97;4978380;28;20583;-67
2022/01/03 02:33:20;;;;;;;0.60;0.60;;;;;;;5.75;100.00;98022.69;4977885;28;20210;-69
2022/01/03 02:35:48;;;;;;;1.37;1.07;;;;;;;5.52;100.00;98024.66;4979585;28;20217;-70
2022/01/03 02:38:18;;;;;;;1.60;0.87;;;;;;;5.46;100.00;98012.88;4984633;28;20819;-69
2022/01/03 02:40:46;;;;;;;0.80;0.80;;;;;;;5.39;100.00;98024.88;4984028;28;20676;-68
2022/01/03 02:43:14;;;;;;;1.13;0.70;;;;;;;5.37;100.00;98021.53;4984341;28;20686;-68
2022/01/03 02:45:42;;;;;;;2.77;0.90;;;;;;;5.43;100.00;98022.81;4983745;28;20205;-68
2022/01/03 02:48:11;;;;;;;0.50;0.50;;;;;;;5.43;100.00;98028.91;4983357;28;20322;-70
2022/01/03 02:50:39;;;;;;;0.93;0.63;;;;;;;5.40;100.00;98039.69;4982058;28;21088;-69
2022/01/03 02:53:08;;;;;;;0.67;0.67;;;;;;;5.44;100.00;98053.41;4984955;28;20813;-69
2022/01/03 02:55:37;;;;;;;1.30;0.60;;;;;;;5.44;100.00;98064.72;5006659;22;20209;-71
2022/01/03 02:58:08;;;;;;;2.53;0.67;;;;;;;5.43;100.00;98052.56;4971813;28;20248;-71
2022/01/03 03:00:44;;;;;;;3.00;0.60;;;;;;;5.44;100.00;98041.06;4980369;28;20213;-71
2022/01/03 03:03:13;;;;;;;0.43;0.43;;;;;;;5.42;100.00;98047.44;4983035;28;20217;-71
2022/01/03 03:05:41;;;;;;;2.27;0.63;;;;;;;5.40;100.00;98026.53;4985129;28;20308;-70
2022/01/03 03:08:10;;;;;;;0.50;0.50;;;;;;;5.42;100.00;98002.75;4986845;28;20458;-71
2022/01/03 03:10:40;;;;;;;1.37;0.70;;;;;;;5.42;100.00;97998.31;4984106;28;20713;-71
2022/01/03 03:13:08;;;;;;;0.83;0.70;;;;;;;5.41;100.00;98015.06;4983878;28;20213;-70
2022/01/03 03:15:36;;;;;;;1.27;0.70;;;;;;;5.42;100.00;98026.41;4984203;28;20202;-71
2022/01/03 03:18:04;;;;;;;0.70;0.70;;;;;;;5.46;100.00;98028.63;4984299;28;20288;-71
2022/01/03 03:20:33;;;;;;;0.60;0.60;;;;;;;5.53;100.00;98042.09;4985098;28;20213;-70
2022/01/03 03:23:02;;;;;;;0.70;0.70;;;;;;;5.50;100.00;98043.22;4983755;28;20206;-70
2022/01/03 03:25:32;;;;;;;1.03;0.70;;;;;;;5.52;100.00;98055.41;4981344;28;20210;-70
2022/01/03 03:28:04;;;;;;;1.20;1.20;;;;;;;5.58;100.00;98047.78;4985178;28;20197;-71
2022/01/03 03:30:33;;;;;;;0.93;0.93;;;;;;;5.57;100.00;98040.88;4983508;28;20206;-71
2022/01/03 03:33:06;;;;;;;2.07;0.70;;;;;;;5.53;100.00;98018.44;4982962;28;20209;-73
2022/01/03 03:35:34;;;;;;;3.80;0.80;;;;;;;5.46;100.00;98007.59;4979683;28;20210;-71
2022/01/03 03:38:03;;;;;;;0.70;0.53;;;;;;;5.44;100.00;98020.06;4981512;28;20231;-70
2022/01/03 03:40:31;;;;;;;0.83;0.57;;;;;;;5.44;100.00;98013.97;4981030;28;20198;-71
2022/01/03 03:42:59;;;;;;;1.23;0.67;;;;;;;5.35;100.00;98007.69;4984022;28;20221;-71
2022/01/03 03:45:28;;;;;;;0.40;0.40;;;;;;;5.38;100.00;97977.72;4982801;28;20440;-71
2022/01/03 03:47:57;;;;;;;0.60;0.60;;;;;;;5.33;100.00;97981.56;4983290;28;20224;-70
2022/01/03 03:50:25;;;;;;;0.63;0.57;;;;;;;5.31;100.00;98014.19;4984085;28;20583;-70
2022/01/03 03:52:54;;;;;;;0.83;0.80;;;;;;;5.27;100.00;98018.03;4983434;28;20244;-70
2022/01/03 03:55:22;;;;;;;0.70;0.70;;;;;;;5.36;100.00;98033.88;4983748;28;20205;-70
2022/01/03 03:57:50;;;;;;;1.00;0.70;;;;;;;5.38;100.00;98041.59;4984064;28;20607;-70
2022/01/03 04:00:19;;;;;;;0.40;0.40;;;;;;;5.38;100.00;98041.59;4983132;28;20212;-70
2022/01/03 04:02:49;;;;;;;1.90;0.80;;;;;;;5.30;100.00;98052.78;4978999;28;20205;-70
2022/01/03 04:05:17;;;;;;;0.90;0.70;;;;;;;5.30;100.00;98039.66;4980963;28;20268;-73
2022/01/03 04:07:45;;;;;;;0.97;0.80;;;;;;;5.31;100.00;98038.69;4976411;28;20590;-71
2022/01/03 04:10:15;;;;;;;0.63;0.63;;;;;;;5.32;100.00;98026.34;4980614;28;20673;-70
2022/01/03 04:12:44;;;;;;;3.40;1.37;;;;;;;5.23;100.00;98020.06;4984825;28;20509;-70
2022/01/03 04:15:12;;;;;;;4.77;1.20;;;;;;;5.26;100.00;98027.69;4983602;28;20221;-70
2022/01/03 04:17:40;;;;;;;0.87;0.70;;;;;;;5.26;100.00;98027.69;4984700;28;20272;-71
2022/01/03 04:20:12;;;;;;;2.33;0.80;;;;;;;5.24;100.00;98055.91;4982976;28;20205;-71
2022/01/03 04:22:41;;;;;;;2.00;1.00;;;;;;;5.21;100.00;98041.25;4982383;28;20711;-71
2022/01/03 04:25:10;;;;;;;0.80;0.77;;;;;;;5.24;100.00;98018.28;4980960;28;20214;-72
2022/01/03 04:27:38;;;;;;;1.27;1.17;;;;;;;5.24;100.00;98007.78;4979339;28;20257;-72
2022/01/03 04:30:07;;;;;;;2.10;1.00;;;;;;;5.27;100.00;97997.84;4981718;28;20253;-72
2022/01/03 04:32:35;;;;;;;1.17;1.07;;;;;;;5.29;100.00;98005.59;4985450;28;20456;-73
2022/01/03 04:35:03;;;;;;;1.90;1.53;;;;;;;5.40;100.00;98008.13;4984059;28;20209;-73
2022/01/03 04:37:33;;;;;;;1.20;0.80;;;;;;;5.50;100.00;98034.47;4983110;28;20230;-74
2022/01/03 04:40:01;;;;;;;1.30;1.27;;;;;;;5.54;100.00;98022.72;4983169;28;20232;-71
2022/01/03 04:42:29;;;;;;;1.93;0.93;;;;;;;5.53;100.00;98017.63;4983566;28;20205;-72
2022/01/03 04:44:57;;;;;;;1.30;0.90;;;;;;;5.54;100.00;98025.38;4982297;28;20217;-71
2022/01/03 04:47:25;;;;;;;2.50;0.87;;;;;;;5.61;100.00;98015.16;4982453;28;20319;-72
2022/01/03 04:49:53;;;;;;;1.80;0.80;;;;;;;5.72;100.00;98030.84;4985300;28;20225;-72
2022/01/03 04:52:21;;;;;;;2.10;0.93;;;;;;;5.80;100.00;98052.03;4981921;28;20705;-71
2022/01/03 04:54:50;;;;;;;2.33;0.97;;;;;;;5.67;100.00;98043.56;4982822;28;20209;-74
2022/01/03 04:57:18;;;;;;;2.83;0.80;;;;;;;5.58;100.00;98041.72;4975602;28;20725;-73
2022/01/03 04:59:46;;;;;;;0.60;0.60;;;;;;;5.57;100.00;98030.34;4979921;28;20669;-73
2022/01/03 05:02:14;;;;;;;1.17;1.17;;;;;;;5.53;100.00;98043.91;4980178;28;20205;-76
2022/01/03 05:04:43;;;;;;;3.00;0.90;;;;;;;5.54;100.00;98035.06;4982511;28;20600;-76
2022/01/03 05:07:10;;;;;;;1.07;0.73;;;;;;;5.54;100.00;98021.91;4984500;28;20226;-77
2022/01/03 05:09:38;;;;;;;1.80;0.80;;;;;;;5.50;100.00;98006.41;4981135;28;20201;-76
2022/01/03 05:12:08;;;;;;;0.80;0.80;;;;;;;5.54;100.00;98006.16;4981475;28;20685;-75
2022/01/03 05:14:36;;;;;;;2.33;0.90;;;;;;;5.62;100.00;98014.19;4984326;28;21132;-76
2022/01/03 05:17:04;;;;;;;2.80;0.90;;;;;;;5.56;100.00;97999.78;4980404;28;20238;-76
2022/01/03 05:19:32;;;;;;;1.70;0.93;;;;;;;5.53;100.00;97986.09;4982100;28;20714;-75
2022/01/03 05:22:00;;;;;;;2.53;1.07;;;;;;;5.55;100.00;97992.03;4983051;28;20216;-73
2022/01/03 05:24:28;;;;;;;1.00;1.00;;;;;;;5.50;100.00;97984.53;4983676;28;20969;-73
2022/01/03 05:26:57;;;;;;;2.83;1.47;;;;;;;5.52;100.00;97987.88;4980100;28;20230;-73
2022/01/03 05:29:27;;;;;;;0.90;0.90;;;;;;;5.45;100.00;97999.88;4985786;28;20209;-72
2022/01/03 05:31:56;;;;;;;3.40;0.90;;;;;;;5.48;100.00;98003.06;4980667;28;20238;-73
2022/01/03 05:34:23;;;;;;;2.30;1.30;;;;;;;5.37;100.00;98000.53;4987025;28;20237;-73
2022/01/03 05:36:51;;;;;;;1.47;0.90;;;;;;;5.39;100.00;97989.88;4983868;28;20228;-74
2022/01/03 05:39:20;;;;;;;2.03;1.07;;;;;;;5.33;100.00;98002.59;4987018;28;20242;-72
2022/01/03 05:41:47;;;;;;;0.90;0.90;;;;;;;5.34;100.00;97992.91;4986130;28;20254;-73
2022/01/03 05:44:15;;;;;;;1.83;1.73;;;;;;;5.32;100.00;98013.22;4984262;28;20210;-72
2022/01/03 05:46:45;;;;;;;1.27;0.77;;;;;;;5.34;100.00;98008.66;4990005;28;20304;-75
2022/01/03 05:49:13;;;;;;;1.67;0.80;;;;;;;5.27;100.00;98016.22;4992626;28;20235;-74
2022/01/03 05:51:41;;;;;;;0.80;0.80;;;;;;;5.21;100.00;98012.34;4989486;28;20500;-75
2022/01/03 05:54:09;;;;;;;2.10;1.10;;;;;;;5.20;100.00;98018.56;4994875;28;20666;-75
2022/01/03 05:56:37;;;;;;;1.27;1.07;;;;;;;5.11;100.00;98027.19;4991967;28;20248;-72
2022/01/03 05:59:07;;;;;;;3.30;1.00;;;;;;;5.08;100.00;98030.06;4985806;28;20225;-76
2022/01/03 06:01:36;;;;;;;1.13;0.80;;;;;;;5.02;100.00;98035.84;4986582;28;20201;-75
2022/01/03 06:04:15;;;;;;;0.87;0.87;;;;;;;5.07;100.00;98023.16;4986252;28;20798;-76
2022/01/03 06:06:54;;;;;;;2.47;1.17;;;;;;;5.02;100.00;98030.59;4986692;28;20217;-75
2022/01/03 06:09:23;;;;;;;2.87;1.13;;;;;;;5.03;100.00;98032.25;4983071;28;20209;-74
2022/01/03 06:11:52;;;;;;;3.37;2.37;;;;;;;4.99;100.00;98039.56;4986810;28;20293;-74
2022/01/03 06:14:21;;;;;;;1.07;1.07;;;;;;;5.04;100.00;98040.03;4987089;28;20221;-75
2022/01/03 06:16:50;;;;;;;0.50;0.50;;;;;;;5.02;100.00;98043.72;4983867;28;20624;-74
2022/01/03 06:19:20;;;;;;;0.87;0.83;;;;;;;5.00;100.00;98035.13;4983106;28;20582;-74
2022/01/03 06:21:48;;;;;;;1.17;0.90;;;;;;;4.96;100.00;98046.88;4987584;28;20209;-73
2022/01/03 06:24:17;;;;;;;0.90;0.90;;;;;;;5.05;100.00;98043.47;4990294;28;20217;-75
2022/01/03 06:26:46;;;;;;;1.07;0.70;;;;;;;5.07;100.00;98041.53;4985443;28;22000;-74
2022/01/03 06:29:15;;;;;;;1.27;1.17;;;;;;;4.96;100.00;98036.34;4989246;28;20210;-75
2022/01/03 06:31:43;;;;;;;3.30;1.97;;;;;;;5.06;100.00;98040.72;4985040;28;20213;-73
2022/01/03 06:34:11;;;;;;;1.50;1.40;;;;;;;5.02;100.00;98041.94;4988443;28;20213;-73
2022/01/03 06:36:40;;;;;;;3.77;1.40;;;;;;;5.07;100.00;98038.91;4983778;28;20272;-73
2022/01/03 06:39:11;;;;;;;2.13;0.90;;;;;;;5.12;100.00;98035.91;4990754;28;20283;-74
2022/01/03 06:41:39;;;;;;;3.60;1.13;;;;;;;5.10;100.00;98022.91;4987422;28;20907;-76
2022/01/03 06:44:08;;;;;;;3.40;1.30;;;;;;;5.15;100.00;98014.63;4991668;28;20217;-77
2022/01/03 06:46:36;;;;;;;2.30;1.40;;;;;;;5.20;100.00;98022.97;4985044;28;20252;-79
2022/01/03 06:49:06;;;;;;;7.00;2.93;;;;;;;5.19;100.00;98019.53;4982061;28;20198;-76
2022/01/03 06:51:35;;;;;;;2.10;1.80;;;;;;;5.15;100.00;98018.13;4984771;28;20635;-76
2022/01/03 06:54:06;;;;;;;2.70;2.50;;;;;;;5.24;100.00;98015.66;4983277;28;20202;-77
2022/01/03 06:56:34;;;;;;;5.30;2.03;;;;;;;5.24;100.00;98021.75;4988115;28;20245;-76
2022/01/03 06:59:03;;;;;;;1.60;1.50;;;;;;;5.24;100.00;98020.94;4985065;28;20218;-76
2022/01/03 07:01:31;;;;;;;4.03;1.20;;;;;;;5.18;100.00;98027.53;4989470;28;20197;-76
2022/01/03 07:03:59;;;;;;;2.63;1.60;;;;;;;5.24;100.00;98023.56;4991333;28;20213;-72
2022/01/03 07:06:27;;;;;;;3.97;1.53;;;;;;;5.21;100.00;98028.09;4991592;28;20225;-73
2022/01/03 07:08:56;;;;;;;1.43;1.10;;;;;;;5.30;100.00;98047.53;4991207;28;20239;-73
2022/01/03 07:11:25;;;;;;;4.10;1.40;;;;;;;5.33;100.00;98049.03;4990687;28;20190;-71
2022/01/03 07:14:04;;;;;;;3.23;3.03;;;;;;;5.46;100.00;98054.91;4996301;28;20201;-75
2022/01/03 07:19:18;;;;;;;2.20;2.10;;;;;;;5.53;100.00;98073.66;4987803;28;20205;-75
2022/01/03 07:21:46;;;;;;;9.27;4.67;;;;;;;5.60;100.00;98073.97;4994095;28;20559;-75
2022/01/03 07:24:13;;;;;;;4.43;3.07;;;;;;;5.49;100.00;98056.47;4992283;28;20215;-75
2022/01/03 07:26:43;;;;;;;2.53;2.10;;;;;;;5.39;100.00;98059.03;4989922;28;20226;-74
2022/01/03 07:29:11;;;;;;;1.53;1.43;;;;;;;5.30;100.00;98059.81;4991805;28;20213;-74
2022/01/03 07:31:39;;;;;;;1.70;1.10;;;;;;;5.20;100.00;98060.59;4995162;28;20202;-75
2022/01/03 07:34:07;;;;;;;1.70;0.80;;;;;;;5.11;100.00;98050.84;4996413;28;20217;-74
2022/01/03 07:36:35;;;;;;;1.37;1.27;;;;;;;5.13;100.00;98056.81;4989989;28;20241;-74
2022/01/03 07:39:03;;;;;;;6.00;1.33;;;;;;;5.13;100.00;98059.44;4992614;28;20239;-75
2022/01/03 07:41:32;;;;;;;2.10;2.00;;;;;;;5.12;100.00;98057.78;4994656;28;20225;-73
2022/01/03 07:44:01;;;;;;;1.77;1.60;;;;;;;5.10;100.00;98066.75;4994645;28;20205;-76
2022/01/03 07:46:29;;;;;;;4.37;2.77;;;;;;;5.16;100.00;98061.81;4992480;28;20256;-76
2022/01/03 07:48:57;;;;;;;1.13;1.03;;;;;;;5.12;100.00;98072.69;4993228;28;20669;-75
2022/01/03 07:51:25;;;;;;;2.07;1.87;;;;;;;5.14;100.00;98057.63;4990781;28;20212;-73
2022/01/03 07:53:53;;;;;;;2.87;2.67;;;;;;;5.19;100.00;98069.44;4987415;28;20463;-74
2022/01/03 07:56:24;;;;;;;2.27;2.00;;;;;;;5.22;100.00;98068.34;4985394;28;20233;-74
2022/01/03 07:58:53;;;;;;;4.53;3.90;;;;;;;5.21;100.00;98064.03;4987542;28;20213;-75
2022/01/03 08:01:22;;;;;;;9.13;8.33;;;;;;;5.22;100.00;98052.56;4987230;28;20238;-74
2022/01/03 08:03:51;;;;;;;7.13;5.40;;;;;;;5.24;100.00;98055.91;4990854;28;20202;-74
2022/01/03 08:06:39;;;;;;;5.60;5.10;;;;;;;5.26;100.00;98042.66;4989404;28;20233;-73
2022/01/03 08:09:07;;;;;;;1.03;0.80;;;;;;;5.29;100.00;98032.69;4990618;28;20225;-75
2022/01/03 08:11:37;;;;;;;5.80;5.17;;;;;;;5.34;100.00;98033.16;4990492;28;20209;-73
2022/01/03 08:14:05;;;;;;;3.70;1.57;;;;;;;5.36;100.00;98025.97;4991038;28;20201;-73
2022/01/03 08:16:34;;;;;;;2.00;1.33;;;;;;;5.38;100.00;98038.16;4989757;28;20230;-74
2022/01/03 08:19:03;;;;;;;2.07;1.37;;;;;;;5.40;100.00;98044.13;4988677;28;20214;-74
2022/01/03 08:21:34;;;;;;;1.40;1.30;;;;;;;5.43;100.00;98052.56;4987634;28;20214;-74
2022/01/03 08:24:02;;;;;;;3.30;3.10;;;;;;;5.48;100.00;98060.88;4989363;28;20213;-75
2022/01/03 08:26:30;;;;;;;3.33;2.37;;;;;;;5.48;100.00;98063.50;4984307;28;20715;-74
2022/01/03 08:28:58;;;;;;;16.00;12.57;;;;;;;5.50;100.00;98061.63;4990168;28;20212;-74
2022/01/03 08:31:31;;;;;;;3.33;2.70;;;;;;;5.53;100.00;98062.31;4991384;28;20210;-75
2022/01/03 08:34:03;;;;;;;1.67;1.27;;;;;;;5.58;100.00;98063.56;4988626;28;20249;-75
2022/01/03 08:36:34;;;;;;;4.90;4.37;;;;;;;5.59;100.00;98059.16;4992071;28;20218;-75
2022/01/03 08:39:02;;;;;;;1.13;1.13;;;;;;;5.61;100.00;98065.13;4992290;28;20212;-75
2022/01/03 08:41:35;;;;;;;2.33;1.90;;;;;;;5.64;100.00;98070.13;4990274;28;20222;-74
2022/01/03 08:44:05;;;;;;;1.50;1.40;;;;;;;5.74;100.00;98060.47;4991696;28;20287;-74
2022/01/03 08:46:37;;;;;;;1.80;1.53;;;;;;;5.74;100.00;98067.53;4992571;28;20234;-74
2022/01/03 08:49:10;;;;;;;2.73;1.30;;;;;;;5.73;100.00;98063.25;4996302;28;20209;-75
2022/01/03 08:51:38;;;;;;;2.33;1.53;;;;;;;5.77;100.00;98068.09;4991665;28;20215;-76
2022/01/03 08:54:06;;;;;;;2.53;1.37;;;;;;;5.85;100.00;98064.81;4995273;28;20624;-75
2022/01/03 08:56:34;;;;;;;2.23;1.60;;;;;;;5.86;100.00;98060.38;4993730;28;20245;-75
2022/01/03 08:59:03;;;;;;;2.30;1.47;;;;;;;5.94;100.00;98068.44;4992376;28;20201;-75
2022/01/03 09:01:31;;;;;;;6.30;1.60;;;;;;;5.97;100.00;98060.28;4993571;28;20252;-75
2022/01/03 09:04:01;;;;;;;2.47;1.20;;;;;;;6.04;100.00;98064.09;4987757;28;20230;-74
2022/01/03 09:06:35;;;;;;;3.60;1.83;;;;;;;6.16;100.00;98059.56;4991977;28;20763;-76
2022/01/03 09:09:05;;;;;;;2.97;1.70;;;;;;;6.21;100.00;98056.50;4988594;28;20736;-74
2022/01/03 09:11:33;;;;;;;6.80;2.57;;;;;;;6.26;100.00;98066.63;4992605;28;20209;-76
2022/01/03 09:14:01;;;;;;;2.70;1.43;;;;;;;6.33;100.00;98051.97;4990622;28;20224;-76
2022/01/03 09:16:29;;;;;;;4.47;2.70;;;;;;;6.42;100.00;98056.41;4990686;28;20271;-75
2022/01/03 09:18:58;;;;;;;4.30;1.80;;;;;;;6.47;100.00;98056.00;4984719;28;20206;-76
2022/01/03 09:21:26;;;;;;;6.83;2.10;;;;;;;6.55;100.00;98058.78;4988007;28;20217;-74
2022/01/03 09:24:16;;;;;;;6.07;2.40;;;;;;;6.64;100.00;98057.13;4985417;28;20260;-77
2022/01/03 09:29:41;;;;;;;3.37;2.07;;;;;;;6.81;100.00;98061.72;4980092;28;20213;-75
2022/01/03 09:32:09;;;;;;;4.80;1.90;;;;;;;6.97;100.00;98062.13;4984733;28;20217;-75
2022/01/03 09:34:37;;;;;;;5.57;1.93;;;;;;;6.87;100.00;98057.69;4984748;28;20681;-74
2022/01/03 09:37:06;;;;;;;4.37;2.10;;;;;;;6.96;100.00;98063.94;4989913;28;20218;-76
2022/01/03 09:39:35;;;;;;;8.13;2.23;;;;;;;6.94;100.00;98065.88;4991314;28;20210;-76
2022/01/03 09:42:06;;;;;;;9.33;2.60;;;;;;;6.98;100.00;98061.16;4987195;28;20226;-75
2022/01/03 09:44:35;;;;;;;7.57;2.20;;;;;;;7.05;100.00;98054.38;4986089;28;20204;-76
2022/01/03 09:47:06;;;;;;;2.50;1.73;;;;;;;7.13;100.00;98043.97;4994174;28;20221;-75
2022/01/03 09:49:35;;;;;;;3.57;2.10;;;;;;;7.09;100.00;98046.03;4986177;28;20216;-72
2022/01/03 09:52:06;;;;;;;5.43;1.90;;;;;;;7.18;100.00;98049.63;4987471;28;20206;-74
2022/01/03 09:54:37;;;;;;;7.40;2.07;;;;;;;7.27;100.00;98045.34;4990172;28;20271;-76
2022/01/03 09:57:06;;;;;;;2.47;2.27;;;;;;;7.30;100.00;98044.19;4992037;28;20260;-76
2022/01/03 09:59:34;;;;;;;5.30;2.33;;;;;;;7.33;100.00;98038.63;4994301;28;20220;-76
2022/01/03 10:02:05;;;;;;;6.53;2.00;;;;;;;7.32;100.00;98040.47;4993981;28;20440;-75
2022/01/03 10:04:36;;;;;;;5.13;2.30;;;;;;;7.27;100.00;98039.22;4990679;28;20252;-75
2022/01/03 10:07:04;;;;;;;5.43;2.10;;;;;;;7.36;100.00;98041.00;4988998;28;20218;-74
2022/01/03 10:09:33;;;;;;;6.30;2.33;;;;;;;7.42;100.00;98032.53;4979331;28;20210;-75
2022/01/03 10:12:03;;;;;;;5.97;2.70;;;;;;;7.45;100.00;98031.41;4984524;28;20206;-76
2022/01/03 10:14:31;;;;;;;5.03;2.03;;;;;;;7.50;100.00;98040.56;4983889;28;20209;-75
2022/01/03 10:16:59;;;;;;;2.67;1.60;;;;;;;7.53;100.00;98024.44;4982652;28;20229;-75
2022/01/03 10:19:27;;;;;;;5.60;2.13;;;;;;;7.61;100.00;98033.44;4987954;28;20201;-75
2022/01/03 10:21:56;;;;;;;3.77;1.70;;;;;;;7.63;100.00;98026.22;4986499;28;20308;-75
2022/01/03 10:24:32;;;;;;;3.87;1.90;;;;;;;7.53;100.00;98023.59;4989591;28;20213;-74
2022/01/03 10:27:00;;;;;;;3.03;2.40;;;;;;;7.52;100.00;98022.78;4983835;28;20225;-75
2022/01/03 10:29:31;;;;;;;6.27;2.33;;;;;;;7.47;100.00;98014.47;4986255;28;20503;-74
2022/01/03 10:32:05;;;;;;;1.97;1.60;;;;;;;7.52;100.00;98020.16;4989138;28;20198;-74
2022/01/03 10:34:34;;;;;;;2.63;1.37;;;;;;;7.67;100.00;98009.97;4985629;28;20236;-74
2022/01/03 10:37:11;;;;;;;5.13;1.50;;;;;;;7.58;100.00;98018.75;4984345;28;20665;-74
2022/01/03 10:39:39;;;;;;;2.50;1.90;;;;;;;7.52;100.00;98008.75;4987638;28;20929;-76
2022/01/03 10:42:15;;;;;;;3.07;2.10;;;;;;;7.30;100.00;98017.84;4986981;28;20611;-77
2022/01/03 10:44:46;;;;;;;3.17;2.00;;;;;;;7.21;100.00;98016.91;4987193;28;20209;-74
2022/01/03 10:47:18;;;;;;;5.13;1.43;;;;;;;7.09;100.00;98034.69;4989147;28;20709;-75
2022/01/03 10:49:48;;;;;;;5.70;1.70;;;;;;;7.03;100.00;98020.25;4992527;28;20204;-75
2022/01/03 10:52:19;;;;;;;2.80;1.93;;;;;;;6.93;100.00;98006.25;4988721;28;20205;-75
2022/01/03 10:55:11;;;;;;;6.43;1.57;;;;;;;6.83;100.00;98022.06;4987657;28;20670;-75
2022/01/03 10:57:50;;;;;;;4.70;1.70;;;;;;;6.79;100.00;98015.41;4990388;28;20264;-75
2022/01/03 11:00:22;;;;;;;2.07;1.67;;;;;;;6.74;100.00;98013.19;4986959;28;20382;-74
2022/01/03 11:03:27;;;;;;;3.00;1.40;;;;;;;6.70;100.00;98019.72;4990152;28;20225;-75
2022/01/03 11:06:01;;;;;;;6.37;1.77;;;;;;;6.68;100.00;98018.22;4989324;28;20225;-73
2022/01/03 11:11:36;;;;;;;2.50;1.87;;;;;;;6.83;100.00;98015.97;4929524;28;20809;-73
2022/01/03 11:14:04;;;;;;;3.20;1.43;;;;;;;6.78;100.00;98021.66;4987575;28;20228;-73
2022/01/03 11:16:35;;;;;;;4.83;2.10;;;;;;;6.91;100.00;97997.66;4985772;28;20760;-74
2022/01/03 11:19:04;;;;;;;2.03;1.60;;;;;;;6.92;100.00;97994.06;4987662;28;20245;-73
2022/01/03 11:21:33;;;;;;;6.13;2.23;;;;;;;6.94;100.00;97998.19;4986440;28;20296;-72
2022/01/03 11:24:09;;;;;;;3.57;1.10;;;;;;;7.09;100.00;97988.06;4985327;28;20210;-72
2022/01/03 11:26:40;;;;;;;4.00;1.50;;;;;;;7.12;100.00;97983.47;4986453;28;20754;-70
2022/01/03 11:29:09;;;;;;;5.47;2.20;;;;;;;7.14;100.00;97987.63;4982562;28;20201;-74
2022/01/03 11:31:40;;;;;;;4.63;1.90;;;;;;;7.16;100.00;97979.56;4986798;28;20213;-72
2022/01/03 11:34:09;;;;;;;5.63;1.43;;;;;;;7.30;100.00;97980.94;4986452;28;20209;-72
2022/01/03 11:36:58;;;;;;;5.77;1.80;;;;;;;7.35;100.00;97974.25;4981727;28;20261;-69
2022/01/03 11:39:27;;;;;;;3.83;1.60;;;;;;;7.36;100.00;97969.81;4987036;28;20228;-74
2022/01/03 11:41:55;;;;;;;3.77;2.10;;;;;;;7.44;100.00;97956.75;4979683;28;20316;-75
2022/01/03 11:44:24;;;;;;;2.60;1.50;;;;;;;7.42;100.00;97963.97;4976799;28;20268;-73
2022/01/03 11:46:53;;;;;;;2.50;1.70;;;;;;;7.45;100.00;97963.69;4983228;28;20240;-75
2022/01/03 11:49:21;;;;;;;1.50;1.40;;;;;;;7.44;100.00;97953.28;4982908;28;20237;-74
2022/01/03 11:51:51;;;;;;;2.63;1.47;;;;;;;7.48;100.00;97952.84;5006350;22;20659;-69
2022/01/03 11:54:20;;;;;;;2.83;1.77;;;;;;;7.45;100.00;97947.88;4995672;28;20677;-69